Time;durP1;ratioP1;P1;durP2;ratioP2;P2;SDS_P1;SDS_P2;PMS_P1;PMS_P2;Temp;Humidity;BMP_temperature;BMP_pressure;BME280_temperature;BME280_humidity;BME280_pressure;Samples;Min_cycle;Max_cycle;Signal;HPM_P1;HPM_P2
2023/05/11 00:01:32;;;;;;;2.80;0.77;;;;;;;;;;5057157;28;20211;-64
2023/05/11 00:04:02;;;;;;;1.17;0.83;;;;;;;;;;5057108;28;20202;-64
2023/05/11 00:06:31;;;;;;;0.70;0.70;;;;;;;;;;5057315;28;20231;-64
2023/05/11 00:08:59;;;;;;;1.53;0.50;;;;;;;;;;5057300;28;20211;-65
2023/05/11 00:11:26;;;;;;;0.70;0.60;;;;;;;;;;5057199;28;20203;-64
2023/05/11 00:13:54;;;;;;;0.60;0.57;;;;;;;;;;5057266;28;20242;-64
2023/05/11 00:16:22;;;;;;;1.13;0.97;;;;;;;;;;5056885;28;20226;-65
2023/05/11 00:18:50;;;;;;;0.70;0.53;;;;;;;;;;5057235;28;20258;-64
2023/05/11 00:21:21;;;;;;;0.70;0.70;;;;;;;;;;5058423;28;20221;-65
2023/05/11 00:23:49;;;;;;;1.70;1.00;;;;;;;;;;5060819;28;20293;-64
2023/05/11 00:26:20;;;;;;;1.70;0.77;;;;;;;;;;5060628;28;20219;-64
2023/05/11 00:28:48;;;;;;;0.47;0.47;;;;;;;;;;5057677;28;20227;-64
2023/05/11 00:31:16;;;;;;;2.10;0.60;;;;;;;;;;5060316;28;20643;-64
2023/05/11 00:37:14;;;;;;;1.10;0.60;;;;;;;;;;5059628;28;20244;-64
2023/05/11 00:39:44;;;;;;;1.73;0.63;;;;;;;;;;5060118;28;20261;-64
2023/05/11 00:42:12;;;;;;;2.10;0.67;;;;;;;;;;5060277;28;20285;-64
2023/05/11 00:44:40;;;;;;;0.73;0.60;;;;;;;;;;5060176;28;20206;-64
2023/05/11 00:47:08;;;;;;;2.30;0.90;;;;;;;;;;5059870;28;20258;-64
2023/05/11 00:49:36;;;;;;;0.60;0.60;;;;;;;;;;5060159;28;20213;-64
2023/05/11 00:52:05;;;;;;;3.17;0.63;;;;;;;;;;5060282;28;20195;-64
2023/05/11 00:54:35;;;;;;;1.23;0.67;;;;;;;;;;5060223;28;20207;-64
2023/05/11 00:57:03;;;;;;;1.63;0.70;;;;;;;;;;5059477;28;20234;-64
2023/05/11 00:59:31;;;;;;;1.43;0.60;;;;;;;;;;5060249;28;20274;-64
2023/05/11 01:01:59;;;;;;;1.80;0.80;;;;;;;;;;5059921;28;20202;-64
2023/05/11 01:04:27;;;;;;;1.17;0.50;;;;;;;;;;5060195;28;20264;-64
2023/05/11 01:07:00;;;;;;;1.03;0.80;;;;;;;;;;5060016;28;20258;-64
2023/05/11 01:09:32;;;;;;;3.20;0.90;;;;;;;;;;5059891;28;20623;-64
2023/05/11 01:12:07;;;;;;;2.07;0.80;;;;;;;;;;5059593;28;20298;-64
2023/05/11 01:14:36;;;;;;;1.10;0.40;;;;;;;;;;5059782;28;20203;-65
2023/05/11 01:20:33;;;;;;;2.50;0.70;;;;;;;;;;5050378;28;20202;-64
2023/05/11 01:23:17;;;;;;;1.17;0.77;;;;;;;;;;5039820;28;20208;-64
2023/05/11 01:26:00;;;;;;;2.00;0.73;;;;;;;;;;5042074;28;20224;-64
2023/05/11 01:28:49;;;;;;;4.70;0.60;;;;;;;;;;5059776;28;20230;-64
2023/05/11 01:31:19;;;;;;;1.00;0.50;;;;;;;;;;5059087;28;20645;-64
2023/05/11 01:33:49;;;;;;;2.13;0.70;;;;;;;;;;5059185;28;20239;-64
2023/05/11 01:36:19;;;;;;;1.80;0.60;;;;;;;;;;5059551;28;20258;-64
2023/05/11 01:38:49;;;;;;;1.80;0.80;;;;;;;;;;5059400;28;20231;-64
2023/05/11 01:41:18;;;;;;;0.57;0.57;;;;;;;;;;5059433;28;20724;-64
2023/05/11 01:43:50;;;;;;;0.67;0.67;;;;;;;;;;5059452;28;20206;-64
2023/05/11 01:46:21;;;;;;;1.33;0.67;;;;;;;;;;5058905;28;20596;-65
2023/05/11 01:48:51;;;;;;;0.53;0.53;;;;;;;;;;5059375;28;20207;-64
2023/05/11 01:51:23;;;;;;;3.70;1.10;;;;;;;;;;5059416;28;20220;-64
2023/05/11 01:53:52;;;;;;;1.63;0.97;;;;;;;;;;5058611;28;20213;-64
2023/05/11 01:56:21;;;;;;;9.50;1.57;;;;;;;;;;5050822;28;20223;-65
2023/05/11 01:58:51;;;;;;;2.07;1.00;;;;;;;;;;5055569;28;20227;-64
2023/05/11 02:01:20;;;;;;;3.90;1.17;;;;;;;;;;5058586;28;20206;-64
2023/05/11 02:03:49;;;;;;;2.13;1.30;;;;;;;;;;5059110;28;20264;-64
2023/05/11 02:06:18;;;;;;;1.33;0.90;;;;;;;;;;5058918;28;20231;-64
2023/05/11 02:08:47;;;;;;;3.23;1.23;;;;;;;;;;5058761;28;20210;-64
2023/05/11 02:11:15;;;;;;;2.67;1.23;;;;;;;;;;5045278;28;20294;-65
2023/05/11 02:13:47;;;;;;;2.10;1.13;;;;;;;;;;5058528;28;20630;-65
2023/05/11 02:16:15;;;;;;;2.57;1.20;;;;;;;;;;5058177;28;20219;-64
2023/05/11 02:18:45;;;;;;;1.57;0.80;;;;;;;;;;5058434;28;20318;-64
2023/05/11 02:21:16;;;;;;;1.40;0.70;;;;;;;;;;5058554;28;20645;-65
2023/05/11 02:23:46;;;;;;;1.53;0.83;;;;;;;;;;5058593;28;20266;-64
2023/05/11 02:26:15;;;;;;;3.13;1.27;;;;;;;;;;5058366;28;20257;-64
2023/05/11 02:28:43;;;;;;;1.10;0.93;;;;;;;;;;5058650;28;20203;-64
2023/05/11 02:31:15;;;;;;;2.57;0.90;;;;;;;;;;5058347;28;20218;-65
2023/05/11 02:33:44;;;;;;;1.57;1.00;;;;;;;;;;5058363;28;20214;-64
2023/05/11 02:36:16;;;;;;;1.93;1.27;;;;;;;;;;5058384;28;20265;-65
2023/05/11 02:38:46;;;;;;;2.27;0.87;;;;;;;;;;5058250;28;20231;-65
2023/05/11 02:41:16;;;;;;;1.00;0.53;;;;;;;;;;5058057;28;20211;-64
2023/05/11 02:43:46;;;;;;;0.83;0.70;;;;;;;;;;5057892;28;20632;-64
2023/05/11 02:46:15;;;;;;;2.07;0.77;;;;;;;;;;5057252;28;20234;-65
2023/05/11 02:48:51;;;;;;;1.10;0.70;;;;;;;;;;5058334;28;20207;-64
2023/05/11 02:51:22;;;;;;;2.50;1.00;;;;;;;;;;5058525;28;20245;-65
2023/05/11 02:53:50;;;;;;;1.53;0.70;;;;;;;;;;5058153;28;20221;-64
2023/05/11 02:56:18;;;;;;;1.53;0.93;;;;;;;;;;5057893;28;20235;-65
2023/05/11 02:58:47;;;;;;;1.70;0.60;;;;;;;;;;5058013;28;20309;-65
2023/05/11 03:01:15;;;;;;;1.07;0.53;;;;;;;;;;5057701;28;20238;-65
2023/05/11 03:03:45;;;;;;;1.07;0.73;;;;;;;;;;5057725;28;20252;-65
2023/05/11 03:06:15;;;;;;;0.50;0.50;;;;;;;;;;5058116;28;20629;-65
2023/05/11 03:08:44;;;;;;;0.93;0.80;;;;;;;;;;5057960;28;20311;-65
2023/05/11 03:11:14;;;;;;;2.27;0.70;;;;;;;;;;5057556;28;20662;-64
2023/05/11 03:13:43;;;;;;;1.70;1.10;;;;;;;;;;5057724;28;20210;-64
2023/05/11 03:16:11;;;;;;;1.37;0.70;;;;;;;;;;5057422;28;20306;-64
2023/05/11 03:18:40;;;;;;;1.27;1.00;;;;;;;;;;5055349;28;20247;-64
2023/05/11 03:21:08;;;;;;;2.13;0.80;;;;;;;;;;5046595;28;20214;-65
2023/05/11 03:23:36;;;;;;;1.50;0.90;;;;;;;;;;5037596;28;20270;-63
2023/05/11 03:26:12;;;;;;;1.27;0.70;;;;;;;;;;5042668;28;20226;-65
2023/05/11 03:28:43;;;;;;;6.13;0.77;;;;;;;;;;5057531;28;20209;-62
2023/05/11 03:31:11;;;;;;;0.97;0.60;;;;;;;;;;5057589;28;20217;-62
2023/05/11 03:33:39;;;;;;;1.57;0.70;;;;;;;;;;5057474;28;20211;-62
2023/05/11 03:36:09;;;;;;;1.17;0.73;;;;;;;;;;5057340;28;20238;-63
2023/05/11 03:38:37;;;;;;;0.53;0.53;;;;;;;;;;5057257;28;20223;-63
2023/05/11 03:41:05;;;;;;;2.17;0.50;;;;;;;;;;5057303;28;20238;-62
2023/05/11 03:43:35;;;;;;;0.70;0.70;;;;;;;;;;5057519;28;20214;-63
2023/05/11 03:46:03;;;;;;;3.00;0.90;;;;;;;;;;5057101;28;20649;-63
2023/05/11 03:48:32;;;;;;;1.27;0.90;;;;;;;;;;5056886;28;20666;-63
2023/05/11 03:51:00;;;;;;;1.10;0.80;;;;;;;;;;5056017;28;20203;-62
2023/05/11 03:53:28;;;;;;;1.63;0.70;;;;;;;;;;5057573;28;20207;-62
2023/05/11 03:55:56;;;;;;;0.53;0.53;;;;;;;;;;5058276;28;20230;-63
2023/05/11 03:58:24;;;;;;;0.70;0.70;;;;;;;;;;5061267;28;20214;-63
2023/05/11 04:00:54;;;;;;;2.00;0.80;;;;;;;;;;5061046;28;20230;-63
2023/05/11 04:03:21;;;;;;;1.13;0.90;;;;;;;;;;5061475;28;20240;-63
2023/05/11 04:05:50;;;;;;;1.33;0.77;;;;;;;;;;5061589;28;20239;-64
2023/05/11 04:08:18;;;;;;;1.90;0.70;;;;;;;;;;5061349;28;20652;-64
2023/05/11 04:10:46;;;;;;;1.23;0.60;;;;;;;;;;5060862;28;20563;-63
2023/05/11 04:13:15;;;;;;;1.07;0.90;;;;;;;;;;5032413;28;20199;-63
2023/05/11 04:15:45;;;;;;;4.77;1.07;;;;;;;;;;5053661;28;20215;-64
2023/05/11 04:18:15;;;;;;;1.83;0.80;;;;;;;;;;5052355;28;20227;-64
2023/05/11 04:20:45;;;;;;;2.83;0.70;;;;;;;;;;5051369;28;20266;-64
2023/05/11 04:23:15;;;;;;;2.90;0.73;;;;;;;;;;5053377;28;20203;-64
2023/05/11 04:25:43;;;;;;;2.73;0.73;;;;;;;;;;5047164;28;20246;-64
2023/05/11 04:28:11;;;;;;;1.80;0.60;;;;;;;;;;5060823;28;20221;-64
2023/05/11 04:30:39;;;;;;;1.17;0.60;;;;;;;;;;5060791;28;20203;-63
2023/05/11 04:33:07;;;;;;;4.10;0.70;;;;;;;;;;5060841;28;20294;-63
2023/05/11 04:35:40;;;;;;;0.70;0.70;;;;;;;;;;5060727;28;20235;-63
2023/05/11 04:38:08;;;;;;;2.40;0.80;;;;;;;;;;5060639;28;20310;-63
2023/05/11 04:40:36;;;;;;;1.53;0.70;;;;;;;;;;5060413;28;20642;-63
2023/05/11 04:43:04;;;;;;;1.47;0.80;;;;;;;;;;5060515;28;20213;-63
2023/05/11 04:45:32;;;;;;;1.47;0.60;;;;;;;;;;5060591;28;20234;-63
2023/05/11 04:48:00;;;;;;;3.00;0.50;;;;;;;;;;5060196;28;20659;-63
2023/05/11 04:50:28;;;;;;;1.17;0.60;;;;;;;;;;5060578;28;20203;-63
2023/05/11 04:52:57;;;;;;;2.90;1.50;;;;;;;;;;5060295;28;20233;-62
2023/05/11 04:55:25;;;;;;;0.80;0.80;;;;;;;;;;5060045;28;20701;-61
2023/05/11 04:57:53;;;;;;;2.43;0.70;;;;;;;;;;5057033;28;20218;-61
2023/05/11 05:00:21;;;;;;;1.43;0.70;;;;;;;;;;5046777;28;20227;-62
2023/05/11 05:02:50;;;;;;;0.97;0.70;;;;;;;;;;5040041;28;20290;-63
2023/05/11 05:05:18;;;;;;;5.93;0.70;;;;;;;;;;5039258;28;20239;-62
2023/05/11 05:07:46;;;;;;;1.67;0.90;;;;;;;;;;5037234;28;20210;-62
2023/05/11 05:10:16;;;;;;;0.57;0.57;;;;;;;;;;5039127;28;20207;-62
2023/05/11 05:12:44;;;;;;;1.23;0.70;;;;;;;;;;5039579;28;20207;-63
2023/05/11 05:15:12;;;;;;;0.90;0.77;;;;;;;;;;5049119;28;20322;-63
2023/05/11 05:17:40;;;;;;;2.73;0.90;;;;;;;;;;5059075;28;20753;-62
2023/05/11 05:20:08;;;;;;;2.27;1.00;;;;;;;;;;5061668;28;20623;-62
2023/05/11 05:22:36;;;;;;;1.10;0.80;;;;;;;;;;5058499;28;20214;-63
2023/05/11 05:25:05;;;;;;;1.50;1.17;;;;;;;;;;5059326;28;20709;-62
2023/05/11 05:27:34;;;;;;;1.23;0.60;;;;;;;;;;5059499;28;20286;-61
2023/05/11 05:30:02;;;;;;;1.43;0.77;;;;;;;;;;5059705;28;20290;-61
2023/05/11 05:32:30;;;;;;;1.57;0.70;;;;;;;;;;5059060;28;20209;-62
2023/05/11 05:34:58;;;;;;;1.30;0.70;;;;;;;;;;5059507;28;20207;-61
2023/05/11 05:37:26;;;;;;;3.17;0.90;;;;;;;;;;5059394;28;20203;-62
2023/05/11 05:39:54;;;;;;;3.47;1.20;;;;;;;;;;5059541;28;20313;-63
2023/05/11 05:42:22;;;;;;;2.33;0.80;;;;;;;;;;5059051;28;20207;-62
2023/05/11 05:44:51;;;;;;;1.43;0.73;;;;;;;;;;5058907;28;20671;-62
2023/05/11 05:47:19;;;;;;;4.63;1.30;;;;;;;;;;5058826;28;20245;-61
2023/05/11 05:49:47;;;;;;;2.90;0.90;;;;;;;;;;5059114;28;20206;-62
2023/05/11 05:52:15;;;;;;;0.50;0.50;;;;;;;;;;5058933;28;20276;-63
2023/05/11 05:54:43;;;;;;;0.73;0.60;;;;;;;;;;5059077;28;20608;-61
2023/05/11 05:57:11;;;;;;;2.70;0.80;;;;;;;;;;5056001;28;20205;-61
2023/05/11 05:59:42;;;;;;;1.57;0.60;;;;;;;;;;5042928;28;20227;-62
2023/05/11 06:02:12;;;;;;;2.10;1.00;;;;;;;;;;5054560;28;20209;-63
2023/05/11 06:04:40;;;;;;;1.00;0.60;;;;;;;;;;5058706;28;20203;-63
2023/05/11 06:07:08;;;;;;;2.37;1.40;;;;;;;;;;5047456;28;20237;-64
2023/05/11 06:09:36;;;;;;;0.90;0.73;;;;;;;;;;5058894;28;20207;-64
2023/05/11 06:12:06;;;;;;;0.70;0.70;;;;;;;;;;5058998;28;20253;-62
2023/05/11 06:14:35;;;;;;;3.73;1.30;;;;;;;;;;5058842;28;20210;-62
2023/05/11 06:17:03;;;;;;;2.40;1.10;;;;;;;;;;5058184;28;20235;-62
2023/05/11 06:19:32;;;;;;;0.70;0.50;;;;;;;;;;5058110;28;20222;-61
2023/05/11 06:22:00;;;;;;;1.03;0.80;;;;;;;;;;5057062;28;20229;-63
2023/05/11 06:24:32;;;;;;;0.60;0.50;;;;;;;;;;5052924;28;20281;-63
2023/05/11 06:27:00;;;;;;;0.67;0.67;;;;;;;;;;5058410;28;20268;-62
2023/05/11 06:29:28;;;;;;;11.50;7.77;;;;;;;;;;5058445;28;20207;-62
2023/05/11 06:31:57;;;;;;;3.63;1.37;;;;;;;;;;5056498;28;20194;-62
2023/05/11 06:34:25;;;;;;;1.57;0.77;;;;;;;;;;5045093;28;20211;-62
2023/05/11 06:36:55;;;;;;;0.97;0.80;;;;;;;;;;5058355;28;20655;-62
2023/05/11 06:39:23;;;;;;;1.10;0.60;;;;;;;;;;5058429;28;20234;-62
2023/05/11 06:41:51;;;;;;;2.17;1.17;;;;;;;;;;5058540;28;20226;-62
2023/05/11 06:44:21;;;;;;;0.50;0.50;;;;;;;;;;5057927;28;20209;-62
2023/05/11 06:46:49;;;;;;;1.77;0.53;;;;;;;;;;5057810;28;20664;-62
2023/05/11 06:49:18;;;;;;;0.57;0.50;;;;;;;;;;5057794;28;20229;-62
2023/05/11 06:51:46;;;;;;;0.63;0.60;;;;;;;;;;5058070;28;20214;-62
2023/05/11 06:54:15;;;;;;;1.63;0.53;;;;;;;;;;5038852;28;20211;-61
2023/05/11 06:56:43;;;;;;;1.23;0.70;;;;;;;;;;5038046;28;20227;-62
2023/05/11 06:59:11;;;;;;;0.70;0.70;;;;;;;;;;5047960;28;20256;-62
2023/05/11 07:01:40;;;;;;;2.20;0.80;;;;;;;;;;5056594;28;20258;-63
2023/05/11 07:04:09;;;;;;;3.87;0.70;;;;;;;;;;5057676;28;20203;-63
2023/05/11 07:06:37;;;;;;;0.87;0.60;;;;;;;;;;5057342;28;20233;-62
2023/05/11 07:09:06;;;;;;;1.50;0.80;;;;;;;;;;5057151;28;20207;-62
2023/05/11 07:11:35;;;;;;;0.80;0.80;;;;;;;;;;5051971;28;20199;-63
2023/05/11 07:14:04;;;;;;;1.33;0.60;;;;;;;;;;5055020;28;20741;-62
2023/05/11 07:16:32;;;;;;;1.53;1.10;;;;;;;;;;5063533;28;20862;-62
2023/05/11 07:19:00;;;;;;;1.10;0.90;;;;;;;;;;5041275;28;20203;-62
2023/05/11 07:21:28;;;;;;;4.53;0.97;;;;;;;;;;5037457;28;20313;-62
2023/05/11 07:23:56;;;;;;;2.10;0.70;;;;;;;;;;5037372;28;20243;-63
2023/05/11 07:26:25;;;;;;;4.37;0.70;;;;;;;;;;5048077;28;20250;-63
2023/05/11 07:28:54;;;;;;;3.40;0.87;;;;;;;;;;5057304;28;20701;-62
2023/05/11 07:31:22;;;;;;;3.30;0.60;;;;;;;;;;5060739;28;20661;-62
2023/05/11 07:33:50;;;;;;;1.00;0.60;;;;;;;;;;5063990;28;20210;-62
2023/05/11 07:36:18;;;;;;;0.67;0.60;;;;;;;;;;5064020;28;20223;-62
2023/05/11 07:38:46;;;;;;;0.60;0.60;;;;;;;;;;5063916;28;20293;-63
2023/05/11 07:41:14;;;;;;;1.33;0.90;;;;;;;;;;5063904;28;20252;-63
2023/05/11 07:43:42;;;;;;;1.33;0.83;;;;;;;;;;5064049;28;20210;-63
2023/05/11 07:46:12;;;;;;;0.57;0.53;;;;;;;;;;5063837;28;20234;-62
2023/05/11 07:48:40;;;;;;;0.93;0.80;;;;;;;;;;5064062;28;20206;-63
2023/05/11 07:51:08;;;;;;;2.53;0.90;;;;;;;;;;5063775;28;20611;-63
2023/05/11 07:53:36;;;;;;;4.27;0.70;;;;;;;;;;5053520;28;20295;-62
2023/05/11 07:56:05;;;;;;;1.53;0.90;;;;;;;;;;5055480;28;20314;-62
2023/05/11 07:58:33;;;;;;;1.33;1.03;;;;;;;;;;5054431;28;20203;-62
2023/05/11 08:01:01;;;;;;;0.70;0.70;;;;;;;;;;5054367;28;20568;-62
2023/05/11 08:03:30;;;;;;;0.73;0.73;;;;;;;;;;5053166;28;20200;-62
2023/05/11 08:05:58;;;;;;;2.23;0.77;;;;;;;;;;5053786;28;20225;-62
2023/05/11 08:08:26;;;;;;;1.07;0.60;;;;;;;;;;5053520;28;20196;-62
2023/05/11 08:10:54;;;;;;;1.30;0.80;;;;;;;;;;5052871;28;20203;-62
2023/05/11 08:13:22;;;;;;;2.47;0.90;;;;;;;;;;5058378;28;20198;-61
2023/05/11 08:15:51;;;;;;;0.87;0.87;;;;;;;;;;5063220;28;20662;-62
2023/05/11 08:18:19;;;;;;;0.90;0.90;;;;;;;;;;5063363;28;20253;-63
2023/05/11 08:20:49;;;;;;;1.43;0.97;;;;;;;;;;5063616;28;20252;-63
2023/05/11 08:23:17;;;;;;;1.57;0.80;;;;;;;;;;5063666;28;20245;-63
2023/05/11 08:25:50;;;;;;;1.43;0.77;;;;;;;;;;5063340;28;20226;-62
2023/05/11 08:28:18;;;;;;;1.40;0.70;;;;;;;;;;5063669;28;20286;-62
2023/05/11 08:30:46;;;;;;;2.50;1.00;;;;;;;;;;5064843;28;20635;-63
2023/05/11 08:33:14;;;;;;;1.77;0.77;;;;;;;;;;5063397;28;20203;-63
2023/05/11 08:36:04;;;;;;;2.10;0.70;;;;;;;;;;5053682;28;20224;-63
2023/05/11 08:38:32;;;;;;;0.70;0.70;;;;;;;;;;5059782;28;20202;-63
2023/05/11 08:41:01;;;;;;;1.27;0.60;;;;;;;;;;5063384;28;20289;-63
2023/05/11 08:43:30;;;;;;;0.90;0.90;;;;;;;;;;5060280;28;20576;-63
2023/05/11 08:46:07;;;;;;;0.53;0.53;;;;;;;;;;5059729;28;20231;-63
2023/05/11 08:48:36;;;;;;;0.67;0.50;;;;;;;;;;5059713;28;20207;-63
2023/05/11 08:51:06;;;;;;;0.70;0.70;;;;;;;;;;5055042;28;20207;-63
2023/05/11 08:53:34;;;;;;;0.80;0.80;;;;;;;;;;5052875;28;20208;-63
2023/05/11 08:56:05;;;;;;;1.10;0.93;;;;;;;;;;5039608;28;20259;-63
2023/05/11 08:58:36;;;;;;;2.77;0.80;;;;;;;;;;5044824;28;20260;-63
2023/05/11 09:01:04;;;;;;;3.87;0.60;;;;;;;;;;5059470;28;20561;-63
2023/05/11 09:03:34;;;;;;;0.80;0.80;;;;;;;;;;5059647;28;20593;-64
2023/05/11 09:06:03;;;;;;;0.60;0.60;;;;;;;;;;5059519;28;20736;-63
2023/05/11 09:08:34;;;;;;;1.13;0.97;;;;;;;;;;5059246;28;20257;-63
2023/05/11 09:11:02;;;;;;;1.90;1.00;;;;;;;;;;5059307;28;20717;-63
2023/05/11 09:13:30;;;;;;;0.87;0.63;;;;;;;;;;5059395;28;20608;-63
2023/05/11 09:15:59;;;;;;;0.40;0.40;;;;;;;;;;5059390;28;20230;-63
2023/05/11 09:18:27;;;;;;;0.63;0.63;;;;;;;;;;5059438;28;20231;-63
2023/05/11 09:20:55;;;;;;;0.80;0.80;;;;;;;;;;5059329;28;20210;-63
2023/05/11 09:23:25;;;;;;;1.13;1.00;;;;;;;;;;5058977;28;20661;-63
2023/05/11 09:25:54;;;;;;;1.00;0.70;;;;;;;;;;5058840;28;20781;-63
2023/05/11 09:28:23;;;;;;;2.83;0.93;;;;;;;;;;5058873;28;20217;-64
2023/05/11 09:30:53;;;;;;;2.23;0.60;;;;;;;;;;5059017;28;20207;-63
2023/05/11 09:33:22;;;;;;;2.03;0.60;;;;;;;;;;5057970;28;20269;-63
2023/05/11 09:35:50;;;;;;;0.77;0.70;;;;;;;;;;5046729;28;20278;-62
2023/05/11 09:38:19;;;;;;;1.60;0.60;;;;;;;;;;5039591;28;20214;-61
2023/05/11 09:40:51;;;;;;;1.50;0.90;;;;;;;;;;5039269;28;20234;-64
2023/05/11 09:43:21;;;;;;;1.13;0.57;;;;;;;;;;5057603;28;20241;-64
2023/05/11 09:45:51;;;;;;;0.90;0.90;;;;;;;;;;5058782;28;20258;-62
2023/05/11 09:48:26;;;;;;;0.67;0.67;;;;;;;;;;5059051;28;20218;-62
2023/05/11 09:51:02;;;;;;;0.93;0.80;;;;;;;;;;5059212;28;20199;-63
2023/05/11 09:53:41;;;;;;;0.60;0.60;;;;;;;;;;5059081;28;20218;-62
2023/05/11 09:56:10;;;;;;;0.87;0.60;;;;;;;;;;5058902;28;20763;-63
2023/05/11 09:58:50;;;;;;;0.80;0.80;;;;;;;;;;5058829;28;20219;-63
2023/05/11 10:01:28;;;;;;;2.53;0.80;;;;;;;;;;5058980;28;20211;-64
2023/05/11 10:03:57;;;;;;;0.67;0.67;;;;;;;;;;5059197;28;20229;-63
2023/05/11 10:06:45;;;;;;;0.73;0.70;;;;;;;;;;5058616;28;20227;-63
2023/05/11 10:09:14;;;;;;;2.27;0.70;;;;;;;;;;5058526;28;20297;-61
2023/05/11 10:11:44;;;;;;;0.40;0.40;;;;;;;;;;5058675;28;20207;-61
2023/05/11 10:14:14;;;;;;;0.70;0.50;;;;;;;;;;5058795;28;20267;-61
2023/05/11 10:16:43;;;;;;;0.93;0.50;;;;;;;;;;5057826;28;20227;-63
2023/05/11 10:19:12;;;;;;;0.57;0.57;;;;;;;;;;5058552;28;20646;-63
2023/05/11 10:21:41;;;;;;;1.17;0.50;;;;;;;;;;5058598;28;20215;-63
2023/05/11 10:24:12;;;;;;;0.40;0.40;;;;;;;;;;5058350;28;20261;-63
2023/05/11 10:26:41;;;;;;;0.37;0.37;;;;;;;;;;5058146;28;20258;-63
2023/05/11 10:29:09;;;;;;;1.33;0.67;;;;;;;;;;5058542;28;20210;-64
2023/05/11 10:31:40;;;;;;;1.77;0.80;;;;;;;;;;5058175;28;20203;-63
2023/05/11 10:34:10;;;;;;;2.37;0.80;;;;;;;;;;5058527;28;20198;-64
2023/05/11 10:36:38;;;;;;;0.60;0.60;;;;;;;;;;5057868;28;20699;-64
2023/05/11 10:39:07;;;;;;;0.67;0.67;;;;;;;;;;5058140;28;20203;-63
2023/05/11 10:41:41;;;;;;;1.93;0.80;;;;;;;;;;5057925;28;20253;-64
2023/05/11 10:44:24;;;;;;;1.20;0.80;;;;;;;;;;5057883;28;20316;-63
2023/05/11 10:47:02;;;;;;;2.00;0.70;;;;;;;;;;5055262;28;20272;-63
2023/05/11 10:49:48;;;;;;;1.13;0.63;;;;;;;;;;5058085;28;20289;-63
2023/05/11 10:52:22;;;;;;;1.47;0.90;;;;;;;;;;5052583;28;20199;-62
2023/05/11 10:54:55;;;;;;;0.93;0.50;;;;;;;;;;5057089;28;20210;-62
2023/05/11 10:57:36;;;;;;;0.70;0.70;;;;;;;;;;5057698;28;20228;-63
2023/05/11 11:00:29;;;;;;;0.70;0.70;;;;;;;;;;5058042;28;20277;-62
2023/05/11 11:03:08;;;;;;;4.93;0.97;;;;;;;;;;5057920;28;20254;-62
2023/05/11 11:05:37;;;;;;;0.77;0.77;;;;;;;;;;5039579;28;20235;-62
2023/05/11 11:08:07;;;;;;;0.80;0.70;;;;;;;;;;5038089;28;20257;-62
2023/05/11 11:10:36;;;;;;;1.53;0.90;;;;;;;;;;5037547;28;20257;-62
2023/05/11 11:13:05;;;;;;;0.77;0.77;;;;;;;;;;5049776;28;20202;-62
2023/05/11 11:15:52;;;;;;;0.93;0.50;;;;;;;;;;5057385;28;20270;-62
2023/05/11 11:18:22;;;;;;;0.50;0.50;;;;;;;;;;5057625;28;20579;-61
2023/05/11 11:20:51;;;;;;;2.70;0.50;;;;;;;;;;5057894;28;20210;-62
2023/05/11 11:23:37;;;;;;;0.60;0.60;;;;;;;;;;5057441;28;20230;-62
2023/05/11 11:26:05;;;;;;;0.87;0.70;;;;;;;;;;5056377;28;20253;-62
2023/05/11 11:28:48;;;;;;;0.63;0.63;;;;;;;;;;5046767;28;20207;-62
2023/05/11 11:31:23;;;;;;;0.80;0.80;;;;;;;;;;5050824;28;20200;-63
2023/05/11 11:33:52;;;;;;;0.77;0.77;;;;;;;;;;5045683;28;20206;-63
2023/05/11 11:36:35;;;;;;;0.60;0.60;;;;;;;;;;5048132;28;20322;-63
2023/05/11 11:39:04;;;;;;;0.43;0.40;;;;;;;;;;5043540;28;20206;-63
2023/05/11 11:41:32;;;;;;;1.33;0.67;;;;;;;;;;5056330;28;20667;-63
2023/05/11 11:44:00;;;;;;;1.53;0.83;;;;;;;;;;5056548;28;20322;-63
2023/05/11 11:46:29;;;;;;;1.33;0.50;;;;;;;;;;5056308;28;20230;-63
2023/05/11 11:49:08;;;;;;;1.77;0.63;;;;;;;;;;5056627;28;20211;-63
2023/05/11 11:51:39;;;;;;;2.63;1.10;;;;;;;;;;5056289;28;20246;-63
2023/05/11 11:54:07;;;;;;;1.53;1.20;;;;;;;;;;5056320;28;20214;-63
2023/05/11 11:56:39;;;;;;;2.97;0.90;;;;;;;;;;5056029;28;20223;-63
2023/05/11 11:59:10;;;;;;;0.80;0.80;;;;;;;;;;5055420;28;20207;-63
2023/05/11 12:01:39;;;;;;;1.03;0.70;;;;;;;;;;5044542;28;20199;-63
2023/05/11 12:04:40;;;;;;;0.70;0.70;;;;;;;;;;5049232;28;20262;-62
2023/05/11 12:07:10;;;;;;;2.50;0.70;;;;;;;;;;4976078;28;20782;-62
2023/05/11 12:09:38;;;;;;;1.33;1.00;;;;;;;;;;4976196;28;20288;-62
2023/05/11 12:12:08;;;;;;;0.60;0.60;;;;;;;;;;5012897;28;20203;-62
2023/05/11 12:14:36;;;;;;;2.90;0.90;;;;;;;;;;5057079;28;20230;-63
2023/05/11 12:17:07;;;;;;;3.10;0.70;;;;;;;;;;5057798;28;20634;-62
2023/05/11 12:19:35;;;;;;;0.90;0.90;;;;;;;;;;5060787;28;20206;-63
2023/05/11 12:22:03;;;;;;;2.20;1.27;;;;;;;;;;5061145;28;20229;-63
2023/05/11 12:24:32;;;;;;;2.23;1.07;;;;;;;;;;5060935;28;20238;-63
2023/05/11 12:27:03;;;;;;;1.97;0.87;;;;;;;;;;5059862;28;20227;-63
2023/05/11 12:29:32;;;;;;;2.57;1.10;;;;;;;;;;5060151;28;20207;-61
2023/05/11 12:32:00;;;;;;;1.37;1.07;;;;;;;;;;5060293;28;20298;-62
2023/05/11 12:34:28;;;;;;;0.60;0.60;;;;;;;;;;5060647;28;20218;-62
2023/05/11 12:36:58;;;;;;;1.20;0.80;;;;;;;;;;5060632;28;20233;-62
2023/05/11 12:39:27;;;;;;;0.63;0.63;;;;;;;;;;5060319;28;20221;-64
2023/05/11 12:41:57;;;;;;;0.77;0.40;;;;;;;;;;5060302;28;20630;-64
2023/05/11 12:44:25;;;;;;;2.07;0.60;;;;;;;;;;5060170;28;20772;-63
2023/05/11 12:46:54;;;;;;;2.37;1.00;;;;;;;;;;5060044;28;20789;-64
2023/05/11 12:49:22;;;;;;;0.63;0.63;;;;;;;;;;5058298;28;20263;-64
2023/05/11 12:52:01;;;;;;;2.67;0.97;;;;;;;;;;5060122;28;20199;-64
2023/05/11 12:54:30;;;;;;;1.43;0.70;;;;;;;;;;5060059;28;20206;-65
2023/05/11 12:57:00;;;;;;;1.17;0.93;;;;;;;;;;5052862;28;20275;-63
2023/05/11 12:59:29;;;;;;;0.40;0.40;;;;;;;;;;5060049;28;20227;-64
2023/05/11 13:02:05;;;;;;;3.53;0.70;;;;;;;;;;5059918;28;20202;-63
2023/05/11 13:04:33;;;;;;;2.57;0.73;;;;;;;;;;5059973;28;20218;-63
2023/05/11 13:07:01;;;;;;;0.80;0.50;;;;;;;;;;5059678;28;20258;-62
2023/05/11 13:09:28;;;;;;;0.87;0.50;;;;;;;;;;5060045;28;20286;-62
2023/05/11 13:12:11;;;;;;;1.10;0.60;;;;;;;;;;5059623;28;20278;-62
2023/05/11 13:14:39;;;;;;;1.53;0.40;;;;;;;;;;5054687;28;20200;-62
2023/05/11 13:17:07;;;;;;;1.63;0.60;;;;;;;;;;5045856;28;20231;-64
2023/05/11 13:19:36;;;;;;;0.40;0.40;;;;;;;;;;5059713;28;20211;-64
2023/05/11 13:22:04;;;;;;;0.80;0.63;;;;;;;;;;5059672;28;20256;-64
2023/05/11 13:24:32;;;;;;;1.80;0.70;;;;;;;;;;5059349;28;20309;-64
2023/05/11 13:27:01;;;;;;;0.50;0.40;;;;;;;;;;5059380;28;20713;-64
2023/05/11 13:29:30;;;;;;;0.47;0.47;;;;;;;;;;5058577;28;20732;-64
2023/05/11 13:31:58;;;;;;;0.93;0.40;;;;;;;;;;5059213;28;20290;-63
2023/05/11 13:34:26;;;;;;;1.10;0.70;;;;;;;;;;5059236;28;20546;-64
2023/05/11 13:36:54;;;;;;;1.67;0.40;;;;;;;;;;5059321;28;20235;-64
2023/05/11 13:39:22;;;;;;;2.03;0.50;;;;;;;;;;5059246;28;20230;-64
2023/05/11 13:41:51;;;;;;;2.93;0.67;;;;;;;;;;5059245;28;20629;-63
2023/05/11 13:44:22;;;;;;;0.50;0.30;;;;;;;;;;5059343;28;20231;-64
2023/05/11 13:46:51;;;;;;;4.43;3.13;;;;;;;;;;5058865;28;20597;-64
2023/05/11 13:49:19;;;;;;;0.40;0.40;;;;;;;;;;5059326;28;20203;-64
2023/05/11 13:51:51;;;;;;;2.43;0.60;;;;;;;;;;5059409;28;20234;-63
2023/05/11 13:54:20;;;;;;;2.30;0.70;;;;;;;;;;5059351;28;20286;-63
2023/05/11 13:56:48;;;;;;;1.27;0.60;;;;;;;;;;5059078;28;20228;-62
2023/05/11 13:59:17;;;;;;;0.43;0.43;;;;;;;;;;5058994;28;20207;-63
2023/05/11 14:01:45;;;;;;;1.13;0.50;;;;;;;;;;5058606;28;20545;-63
2023/05/11 14:04:18;;;;;;;1.40;0.40;;;;;;;;;;5058821;28;20256;-64
2023/05/11 14:06:46;;;;;;;1.23;0.50;;;;;;;;;;5058682;28;20226;-64
2023/05/11 14:09:14;;;;;;;0.63;0.50;;;;;;;;;;5059038;28;20206;-64
2023/05/11 14:11:42;;;;;;;0.63;0.43;;;;;;;;;;5058662;28;20207;-63
2023/05/11 14:14:10;;;;;;;0.73;0.50;;;;;;;;;;5058716;28;20243;-64
2023/05/11 14:16:38;;;;;;;2.53;0.53;;;;;;;;;;5058279;28;20614;-64
2023/05/11 14:19:06;;;;;;;0.43;0.40;;;;;;;;;;5058746;28;20299;-64
2023/05/11 14:21:35;;;;;;;0.40;0.30;;;;;;;;;;5058661;28;20289;-63
2023/05/11 14:24:03;;;;;;;1.20;0.33;;;;;;;;;;5058474;28;20245;-63
2023/05/11 14:26:39;;;;;;;0.67;0.57;;;;;;;;;;5058083;28;20219;-63
2023/05/11 14:29:07;;;;;;;1.10;0.43;;;;;;;;;;5058641;28;20256;-64
2023/05/11 14:31:35;;;;;;;0.47;0.47;;;;;;;;;;5057961;28;20211;-62
2023/05/11 14:34:04;;;;;;;0.57;0.57;;;;;;;;;;5058201;28;20686;-62
2023/05/11 14:36:32;;;;;;;1.43;0.87;;;;;;;;;;5058271;28;20591;-62
2023/05/11 14:39:01;;;;;;;0.73;0.73;;;;;;;;;;5058488;28;20207;-63
2023/05/11 14:41:30;;;;;;;0.80;0.73;;;;;;;;;;5057996;28;20732;-63
2023/05/11 14:43:57;;;;;;;0.50;0.50;;;;;;;;;;5058334;28;20213;-63
2023/05/11 14:46:25;;;;;;;0.50;0.50;;;;;;;;;;5057925;28;20227;-62
2023/05/11 14:48:53;;;;;;;2.30;0.90;;;;;;;;;;5057850;28;20206;-62
2023/05/11 14:51:21;;;;;;;1.27;0.80;;;;;;;;;;5058191;28;20214;-62
2023/05/11 14:53:49;;;;;;;0.53;0.53;;;;;;;;;;5058088;28;20218;-62
2023/05/11 14:56:19;;;;;;;0.40;0.40;;;;;;;;;;5057646;28;20222;-62
2023/05/11 14:58:47;;;;;;;0.57;0.57;;;;;;;;;;5057910;28;20238;-62
2023/05/11 15:01:15;;;;;;;0.57;0.57;;;;;;;;;;5057523;28;20663;-62
2023/05/11 15:03:44;;;;;;;2.60;0.93;;;;;;;;;;5057676;28;20228;-62
2023/05/11 15:06:19;;;;;;;0.83;0.83;;;;;;;;;;5057532;28;20702;-62